• Join FlightAware (Why Join?)
  • Login
  • US Flag 
06:41AM EDT


 

Airport Tracker/Info


-or-


 

Live Flight TrackerFlight Track Log ✈ DAL6048 ✈ 22-Apr-2013 ✈ KMHT - KLGA

Flight Track Log - Related Links

Times and Time Zones

All times are in EDT time to prevent confusion due to time zone crossing. See the DAL6048 flight status page for this flight to view local times or setup timezone preferences in your user account.

Time Position Orientation Groundspeed Altitude Reporting Facility
EDT Latitude Longitude Course Direction KTS MPH feet Rate Location/Type
10:01AM 42.9500 -71.4167 231° Southwest 159 183 1,000  Level KA90
10:02AM 43.0167 -71.4092 North 197 227 4,100 2,400 Climbing Boston Center
10:03AM 43.0653 -71.4653 320° Northwest 197 227 6,600 2,520 Climbing Boston Center
10:04AM 43.1117 -71.5356 312° West 245 282 9,200 2,340 Climbing Boston Center
10:05AM 42.6264 -71.9338 231° Southwest  Level FlightAware Approximate
10:05AM 43.1581 -71.6119 310° West 265 305 11,300  Level Boston Center
10:06AM 42.5670 -72.0327 231° Southwest  Level FlightAware Approximate
10:06AM 43.1400 -71.7031 255° West 254 292 13,600  Level Boston Center
10:07AM 43.0819 -71.7664 219° Southwest 233 268 15,100 1,500 Climbing Boston Center
10:08AM 43.0011 -71.8525 218° Southwest 294 338 17,000 1,260 Climbing Boston Center
10:09AM 42.9369 -71.9183 217° Southwest 324 373 18,000 480 Climbing Boston Center
10:10AM 42.8706 -71.9897 218° Southwest 342 394 18,000  Level Boston Center
10:11AM 42.7875 -72.0753 217° Southwest 347 399 18,000  Level Boston Center
10:12AM 42.7022 -72.1603 216° Southwest 347 399 18,000  Level Boston Center
10:13AM 42.6358 -72.2283 217° Southwest 347 399 18,000  Level Boston Center
10:14AM 42.5628 -72.3075 219° Southwest 347 399 18,000  Level Boston Center
10:15AM 42.4942 -72.3922 222° Southwest 347 399 18,000  Level Boston Center
10:16AM 42.4358 -72.4964 233° Southwest 342 394 18,000  Level Boston Center
10:17AM 42.3919 -72.5722 232° Southwest 342 394 18,000  Level Boston Center
10:18AM 42.3167 -72.7011 232° Southwest 337 388 18,100 -600 Climbing Boston Center
10:19AM 42.2622 -72.7992 233° Southwest 337 388 16,900 -1,080 Descending Boston Center
10:20AM 42.2056 -72.8969 232° Southwest 337 388 16,000 -1,020 Descending Boston Center
10:21AM 42.1553 -72.9975 236° Southwest 331 381 14,900 -1,080 Descending Boston Center
10:22AM 42.1567 -73.1178 271° West 311 358 13,900 -1,080 Descending Boston Center
10:23AM 42.1517 -73.2411 267° West 322 371 12,800 -900 Descending Boston Center
10:24AM 42.1133 -73.3328 241° Southwest 317 365 12,100 -420 Descending Boston Center
10:25AM 42.0461 -73.4103 221° Southwest 317 365 12,000 -60 Descending Boston Center
10:26AM 41.9725 -73.4928 220° Southwest 323 372 12,000  Level Boston Center
10:27AM 41.9011 -73.5419 207° Southwest 328 377 12,000  Level Boston Center
10:28AM 41.8111 -73.5878 201° Southwest 323 372 12,000  Level Boston Center
10:29AM 41.7378 -73.6197 198° South 318 366 12,000  Level Boston Center
10:30AM 41.6456 -73.6625 199° South 318 366 12,000 -300 Level Boston Center
10:31AM 41.6000 -73.6833 199° South 303 349 11,600 -900 Descending New York TRACON
10:32AM 41.5167 -73.7167 197° South 276 318 10,600 -1,020 Descending New York TRACON
10:33AM 41.4500 -73.7500 201° Southwest 273 314 9,600 -840 Descending New York TRACON
10:34AM 41.3833 -73.7833 201° Southwest 269 310 9,000 -300 Descending New York TRACON
10:35AM 41.3167 -73.7667 169° South 262 302 9,100  Climbing New York TRACON
10:36AM 41.2500 -73.7167 151° Southeast 235 270 9,000 -480 Descending New York TRACON
10:37AM 41.2167 -73.6833 143° Southeast 198 228 8,300 -780 Descending New York TRACON
10:38AM 41.1667 -73.6333 143° Southeast 197 227 7,600 -840 Descending New York TRACON
10:39AM 41.1167 -73.6000 153° Southeast 186 214 6,600 -900 Descending New York TRACON
10:40AM 41.0833 -73.6333 217° Southwest 195 224 5,800 -960 Descending New York TRACON
10:41AM 41.0333 -73.6667 207° Southwest 199 229 4,700 -840 Descending New York TRACON
10:42AM 40.9833 -73.7167 217° Southwest 214 246 4,100 -360 Descending New York TRACON
10:43AM 40.9667 -73.7833 252° West 206 237 4,000 -60 Descending New York TRACON
10:44AM 40.9500 -73.8500 252° West 196 226 4,000  Level New York TRACON
10:45AM 40.9000 -73.8833 207° Southwest 186 214 4,100  Climbing New York TRACON
10:46AM 40.8667 -73.9333 229° Southwest 185 213 4,000 -60 Descending New York TRACON
10:47AM 40.8167 -73.9667 207° Southwest 190 219 4,000  Level New York TRACON
10:48AM 40.7667 -74.0167 217° Southwest 189 217 4,000  Level New York TRACON
10:49AM 40.7333 -74.0500 217° Southwest 192 221 4,000  Level New York TRACON
10:50AM 40.6833 -74.0833 207° Southwest 191 220 4,100 60 Climbing New York TRACON